Time;durP1;ratioP1;P1;durP2;ratioP2;P2;SDS_P1;SDS_P2;PMS_P1;PMS_P2;Temp;Humidity;BMP_temperature;BMP_pressure;BME280_temperature;BME280_humidity;BME280_pressure;Samples;Min_cycle;Max_cycle;Signal;HPM_P1;HPM_P2
2023/03/23 00:00:42;;;;;;;71.30;30.73;;;10.20;99.90;;;;;;5075237;28;20021;-75
2023/03/23 00:03:08;;;;;;;83.47;34.92;;;10.30;99.90;;;;;;5077232;28;20052;-74
2023/03/23 00:05:36;;;;;;;68.93;31.20;;;10.20;99.90;;;;;;5076383;28;20037;-74
2023/03/23 00:08:03;;;;;;;85.53;36.80;;;10.20;99.90;;;;;;5073243;28;20112;-75
2023/03/23 00:10:32;;;;;;;95.63;38.97;;;10.30;99.90;;;;;;5076791;28;20021;-74
2023/03/23 00:13:02;;;;;;;92.95;37.35;;;10.20;99.90;;;;;;5075034;28;20052;-75
2023/03/23 00:15:32;;;;;;;79.78;33.20;;;10.30;99.90;;;;;;5073943;28;20052;-73
2023/03/23 00:18:04;;;;;;;89.38;35.53;;;10.30;99.90;;;;;;5075103;28;20025;-73
2023/03/23 00:20:40;;;;;;;78.78;32.42;;;10.30;99.90;;;;;;5078260;28;20029;-74
2023/03/23 00:23:07;;;;;;;78.13;32.47;;;10.30;99.90;;;;;;5076919;28;20051;-73
2023/03/23 00:25:33;;;;;;;83.97;36.05;;;10.30;99.90;;;;;;5075817;28;20043;-73
2023/03/23 00:27:58;;;;;;;85.97;34.33;;;10.30;99.90;;;;;;5073589;28;20025;-74
2023/03/23 00:30:24;;;;;;;77.78;34.05;;;10.40;99.90;;;;;;5076535;28;20025;-73
2023/03/23 00:32:50;;;;;;;74.75;31.58;;;10.30;99.90;;;;;;5074548;28;20074;-74
2023/03/23 00:35:17;;;;;;;79.70;32.13;;;10.30;99.90;;;;;;5072925;28;20044;-74
2023/03/23 00:37:43;;;;;;;75.45;31.55;;;10.30;99.90;;;;;;5072036;28;20355;-75
2023/03/23 00:40:10;;;;;;;82.03;32.33;;;10.30;99.90;;;;;;5074360;28;20062;-72
2023/03/23 00:42:37;;;;;;;67.38;28.05;;;10.30;99.90;;;;;;5091028;28;20049;-71
2023/03/23 00:45:10;;;;;;;95.70;40.83;;;10.30;99.90;;;;;;5072803;28;20104;-74
2023/03/23 00:47:37;;;;;;;75.82;31.33;;;10.30;99.90;;;;;;5073866;28;20032;-73
2023/03/23 00:50:05;;;;;;;77.63;32.08;;;10.30;99.90;;;;;;5076781;28;20048;-74
2023/03/23 00:52:31;;;;;;;65.28;29.95;;;10.30;99.90;;;;;;5075471;28;20049;-73
2023/03/23 00:54:56;;;;;;;80.32;31.25;;;10.30;99.90;;;;;;5075545;28;20497;-76
2023/03/23 00:57:24;;;;;;;73.93;31.45;;;10.30;99.90;;;;;;5074163;28;20088;-71
2023/03/23 00:59:50;;;;;;;69.63;30.13;;;10.30;99.90;;;;;;5072109;28;20043;-71
2023/03/23 01:02:17;;;;;;;81.40;33.63;;;10.30;99.90;;;;;;5070282;28;20021;-72
2023/03/23 01:04:51;;;;;;;71.78;31.08;;;10.30;99.90;;;;;;5074263;28;20017;-74
2023/03/23 01:07:22;;;;;;;69.75;31.45;;;10.40;99.90;;;;;;5073109;28;20033;-73
2023/03/23 01:09:48;;;;;;;78.38;32.90;;;10.40;99.90;;;;;;5072592;28;20040;-73
2023/03/23 01:12:15;;;;;;;77.13;31.42;;;10.30;99.90;;;;;;5069502;28;20028;-74
2023/03/23 01:14:41;;;;;;;81.40;35.72;;;10.40;99.90;;;;;;5080922;28;20048;-74
2023/03/23 01:17:07;;;;;;;91.47;34.85;;;10.30;99.90;;;;;;5075723;28;20032;-75
2023/03/23 01:19:33;;;;;;;85.45;33.85;;;10.30;99.90;;;;;;5074711;28;20029;-74
2023/03/23 01:21:58;;;;;;;84.32;34.45;;;10.40;99.90;;;;;;5073607;28;20138;-73
2023/03/23 01:24:24;;;;;;;84.60;35.50;;;10.40;99.90;;;;;;5080128;28;20021;-75
2023/03/23 01:26:50;;;;;;;91.25;36.70;;;10.40;99.90;;;;;;5075578;28;20033;-74
2023/03/23 01:29:16;;;;;;;82.90;34.03;;;10.40;99.90;;;;;;5083142;28;20032;-74
2023/03/23 01:31:42;;;;;;;85.43;36.75;;;10.40;99.90;;;;;;5076315;28;20101;-74
2023/03/23 01:34:10;;;;;;;72.38;31.13;;;10.40;99.90;;;;;;5073973;28;20024;-73
2023/03/23 01:36:36;;;;;;;80.50;34.17;;;10.40;99.90;;;;;;5072267;28;20028;-74
2023/03/23 01:39:04;;;;;;;80.68;34.85;;;10.40;99.90;;;;;;5075202;28;20076;-74
2023/03/23 01:41:33;;;;;;;82.30;37.55;;;10.40;99.90;;;;;;5071624;28;20508;-73
2023/03/23 01:44:03;;;;;;;81.78;31.15;;;10.40;99.90;;;;;;5070314;28;20024;-72
2023/03/23 01:46:32;;;;;;;78.03;32.97;;;10.40;99.90;;;;;;5073583;28;20092;-74
2023/03/23 01:49:08;;;;;;;90.30;37.40;;;10.40;99.90;;;;;;5073143;28;20025;-73
2023/03/23 01:51:37;;;;;;;89.68;39.05;;;10.40;99.90;;;;;;5073793;28;20020;-74
2023/03/23 01:54:07;;;;;;;77.10;31.33;;;10.40;99.90;;;;;;5073275;28;20040;-76
2023/03/23 01:56:43;;;;;;;80.35;34.58;;;10.40;99.90;;;;;;5069149;28;20032;-74
2023/03/23 01:59:10;;;;;;;85.57;36.42;;;10.40;99.90;;;;;;5072887;28;20024;-74
2023/03/23 02:01:39;;;;;;;73.85;31.17;;;10.40;99.90;;;;;;5070991;28;20111;-73
2023/03/23 02:04:05;;;;;;;72.80;31.98;;;10.40;99.90;;;;;;5072793;28;20058;-72
2023/03/23 02:06:31;;;;;;;82.82;36.85;;;10.40;99.90;;;;;;5072532;28;20037;-73
2023/03/23 02:08:57;;;;;;;84.60;37.38;;;10.40;99.90;;;;;;5074477;28;20073;-73
2023/03/23 02:11:26;;;;;;;86.40;35.38;;;10.40;99.90;;;;;;5072630;28;20021;-73
2023/03/23 02:13:52;;;;;;;81.32;35.35;;;10.40;99.90;;;;;;5070727;28;20056;-75
2023/03/23 02:16:23;;;;;;;81.90;36.35;;;10.40;99.90;;;;;;5075641;28;20018;-73
2023/03/23 02:19:07;;;;;;;87.68;35.13;;;10.40;99.90;;;;;;5071165;28;20096;-73
2023/03/23 02:21:59;;;;;;;75.28;32.15;;;10.40;99.90;;;;;;5073422;28;20036;-73
2023/03/23 02:24:58;;;;;;;77.10;33.78;;;10.40;99.90;;;;;;5075172;28;20021;-73
2023/03/23 02:27:51;;;;;;;80.07;35.17;;;10.40;99.90;;;;;;5073171;28;20039;-73
2023/03/23 02:30:23;;;;;;;81.72;34.45;;;10.40;99.90;;;;;;5074876;28;20466;-73
2023/03/23 02:32:53;;;;;;;82.57;33.78;;;10.40;99.90;;;;;;5071321;28;20368;-75
2023/03/23 02:35:23;;;;;;;75.47;33.63;;;10.40;99.90;;;;;;5069051;28;20021;-75
2023/03/23 02:37:56;;;;;;;71.88;33.00;;;10.40;99.90;;;;;;5074633;28;20043;-73
2023/03/23 02:40:33;;;;;;;67.38;28.52;;;10.40;99.90;;;;;;5072328;28;20059;-73
2023/03/23 02:43:00;;;;;;;67.63;33.42;;;10.30;99.90;;;;;;5072878;28;20044;-72
2023/03/23 02:45:28;;;;;;;76.03;35.80;;;10.30;99.90;;;;;;5072367;28;20036;-73
2023/03/23 02:47:55;;;;;;;70.22;34.47;;;10.40;99.90;;;;;;5073180;28;20363;-74
2023/03/23 02:50:23;;;;;;;72.75;35.75;;;10.40;99.90;;;;;;5072034;28;20067;-75
2023/03/23 02:52:51;;;;;;;70.68;33.95;;;10.30;99.90;;;;;;5073345;28;20096;-73
2023/03/23 02:55:19;;;;;;;67.28;32.88;;;10.40;99.90;;;;;;5073938;28;20021;-74
2023/03/23 02:57:46;;;;;;;67.47;34.35;;;10.40;99.90;;;;;;5070569;28;20028;-74
2023/03/23 03:00:15;;;;;;;66.70;33.95;;;10.40;99.90;;;;;;5074499;28;20099;-76
2023/03/23 03:09:25;;;;;;;78.75;33.88;;;10.40;99.90;;;;;;5010898;28;20077;-70
2023/03/23 03:11:59;;;;;;;65.35;34.88;;;10.30;99.90;;;;;;5015829;28;20026;-69
2023/03/23 03:14:36;;;;;;;69.77;34.30;;;10.40;99.90;;;;;;5016717;28;20045;-67
2023/03/23 03:17:24;;;;;;;74.55;36.05;;;10.30;99.90;;;;;;5015119;28;20758;-69
2023/03/23 03:19:58;;;;;;;71.85;34.67;;;10.30;99.90;;;;;;5012957;28;20025;-68
2023/03/23 03:22:28;;;;;;;71.78;35.72;;;10.30;99.90;;;;;;5014442;28;20470;-67
2023/03/23 03:24:57;;;;;;;69.43;33.40;;;10.30;99.90;;;;;;5015225;28;20096;-69
2023/03/23 03:27:24;;;;;;;67.40;34.22;;;10.40;99.90;;;;;;5015250;28;20046;-69
2023/03/23 03:29:56;;;;;;;59.78;30.45;;;10.40;99.90;;;;;;5015880;28;20029;-66
2023/03/23 03:32:30;;;;;;;57.25;28.73;;;10.40;99.90;;;;;;5015640;28;20021;-70
2023/03/23 03:35:00;;;;;;;56.75;28.23;;;10.40;99.90;;;;;;5015556;28;20029;-68
2023/03/23 03:37:26;;;;;;;63.70;31.98;;;10.40;99.90;;;;;;5012644;28;20046;-68
2023/03/23 03:39:52;;;;;;;53.25;25.98;;;10.40;99.90;;;;;;5015259;28;20033;-70
2023/03/23 03:42:17;;;;;;;59.65;30.25;;;10.40;99.90;;;;;;5014891;28;20021;-68
2023/03/23 03:44:43;;;;;;;60.25;30.83;;;10.40;99.90;;;;;;5015765;28;20040;-68
2023/03/23 03:47:08;;;;;;;55.58;28.23;;;10.40;99.90;;;;;;5014902;28;20069;-67
2023/03/23 03:49:35;;;;;;;56.38;28.77;;;10.40;99.90;;;;;;5015673;28;20026;-69
2023/03/23 03:52:00;;;;;;;60.08;27.92;;;10.40;99.90;;;;;;5015970;28;20081;-68
2023/03/23 03:54:26;;;;;;;56.83;26.70;;;10.40;99.90;;;;;;5015148;28;20085;-68
2023/03/23 03:56:57;;;;;;;48.30;25.10;;;10.40;99.90;;;;;;5015344;28;20057;-66
2023/03/23 03:59:23;;;;;;;49.63;23.27;;;10.40;99.90;;;;;;5015196;28;20089;-68
2023/03/23 04:01:53;;;;;;;45.03;23.10;;;10.40;99.90;;;;;;5015069;28;20421;-67
2023/03/23 04:04:21;;;;;;;41.90;21.50;;;10.40;99.90;;;;;;5014824;28;20026;-70
2023/03/23 04:06:49;;;;;;;38.25;20.55;;;10.40;99.90;;;;;;5021039;28;20046;-71
2023/03/23 04:09:15;;;;;;;42.90;22.88;;;10.40;99.90;;;;;;5051308;28;20029;-68
2023/03/23 04:11:41;;;;;;;44.70;24.50;;;10.40;99.90;;;;;;5053054;28;20433;-67
2023/03/23 04:14:06;;;;;;;41.67;22.70;;;10.50;99.90;;;;;;5052708;28;20049;-67
2023/03/23 04:16:34;;;;;;;42.63;23.38;;;10.40;99.90;;;;;;5052974;28;20398;-68
2023/03/23 04:19:00;;;;;;;41.25;24.08;;;10.50;99.90;;;;;;5053950;28;20024;-68
2023/03/23 04:21:28;;;;;;;43.28;24.10;;;10.50;99.90;;;;;;5054285;28;20045;-71
2023/03/23 04:23:58;;;;;;;43.72;23.65;;;10.40;99.90;;;;;;5052823;28;20018;-69
2023/03/23 04:26:25;;;;;;;44.53;24.02;;;10.40;99.90;;;;;;5054274;28;20069;-70
2023/03/23 04:28:51;;;;;;;45.35;25.33;;;10.50;99.90;;;;;;5051458;28;20025;-69
2023/03/23 04:31:17;;;;;;;44.30;23.75;;;10.50;99.90;;;;;;5054364;28;20036;-69
2023/03/23 04:33:43;;;;;;;40.60;23.33;;;10.50;99.90;;;;;;5051746;28;20029;-69
2023/03/23 04:36:08;;;;;;;46.97;24.20;;;10.50;99.90;;;;;;5053840;28;20041;-68
2023/03/23 04:38:34;;;;;;;46.65;24.20;;;10.50;99.90;;;;;;5050663;28;20025;-67
2023/03/23 04:41:01;;;;;;;40.65;22.55;;;10.50;99.90;;;;;;5053969;28;20033;-66
2023/03/23 04:43:28;;;;;;;46.67;21.83;;;10.50;99.90;;;;;;5053546;28;20024;-67
2023/03/23 04:45:57;;;;;;;41.47;23.05;;;10.50;99.90;;;;;;5054164;28;20021;-66
2023/03/23 04:48:25;;;;;;;42.40;21.48;;;10.50;99.90;;;;;;5052535;28;20032;-66
2023/03/23 04:50:51;;;;;;;39.75;21.30;;;10.50;99.90;;;;;;5052705;28;20029;-68
2023/03/23 04:53:17;;;;;;;35.95;19.38;;;10.50;99.90;;;;;;5053526;28;20056;-70
2023/03/23 04:55:43;;;;;;;36.60;19.08;;;10.50;99.90;;;;;;5051201;28;20116;-69
2023/03/23 04:58:15;;;;;;;46.65;21.35;;;10.50;99.90;;;;;;5052603;28;20060;-67
2023/03/23 05:00:43;;;;;;;41.63;20.55;;;10.50;99.90;;;;;;5053006;28;20021;-67
2023/03/23 05:03:11;;;;;;;57.22;27.23;;;10.50;99.90;;;;;;5052254;28;20465;-68
2023/03/23 05:05:37;;;;;;;44.78;19.70;;;10.50;99.90;;;;;;5052938;28;20051;-68
2023/03/23 05:08:03;;;;;;;57.97;25.90;;;10.50;99.90;;;;;;5049852;28;20052;-68
2023/03/23 05:10:29;;;;;;;37.97;20.67;;;10.50;99.90;;;;;;5053613;28;20032;-69
2023/03/23 05:12:54;;;;;;;28.27;16.35;;;10.50;99.90;;;;;;5052872;28;20041;-69
2023/03/23 05:15:21;;;;;;;26.00;14.63;;;10.50;99.90;;;;;;5049967;28;20033;-69
2023/03/23 05:17:48;;;;;;;30.02;16.00;;;10.50;99.90;;;;;;5051999;28;20036;-69
2023/03/23 05:20:18;;;;;;;32.58;18.52;;;10.50;99.90;;;;;;5053306;28;20018;-70
2023/03/23 05:22:49;;;;;;;30.25;16.70;;;10.50;99.90;;;;;;5052247;28;20017;-70
2023/03/23 05:25:20;;;;;;;31.65;18.70;;;10.50;99.90;;;;;;5053080;28;20029;-71
2023/03/23 05:27:52;;;;;;;30.70;16.90;;;10.50;99.90;;;;;;5051367;28;20030;-69
2023/03/23 05:30:19;;;;;;;26.88;16.10;;;10.50;99.90;;;;;;5052686;28;20025;-69
2023/03/23 05:32:44;;;;;;;30.15;15.18;;;10.50;99.90;;;;;;5046423;28;20031;-69
2023/03/23 05:35:12;;;;;;;29.90;14.88;;;10.50;99.90;;;;;;5045556;28;20097;-69
2023/03/23 05:37:38;;;;;;;30.88;16.48;;;10.50;99.90;;;;;;5050067;28;20029;-68
2023/03/23 05:40:07;;;;;;;33.63;16.83;;;10.60;99.90;;;;;;5053164;28;20121;-70
2023/03/23 05:42:34;;;;;;;30.33;17.13;;;10.50;99.90;;;;;;5053438;28;20458;-69
2023/03/23 05:45:01;;;;;;;30.10;14.82;;;10.60;99.90;;;;;;5051426;28;20031;-67
2023/03/23 05:47:28;;;;;;;28.63;16.10;;;10.50;99.90;;;;;;5053338;28;20389;-69
2023/03/23 05:49:54;;;;;;;37.10;16.15;;;10.50;99.90;;;;;;5051473;28;20477;-69
2023/03/23 05:52:20;;;;;;;27.92;15.95;;;10.60;99.90;;;;;;5053329;28;20079;-68
2023/03/23 05:54:46;;;;;;;25.73;13.65;;;10.50;99.90;;;;;;5052298;28;20025;-70
2023/03/23 05:57:12;;;;;;;27.92;14.98;;;10.60;99.90;;;;;;5052618;28;20044;-71
2023/03/23 05:59:37;;;;;;;27.55;15.68;;;10.50;99.90;;;;;;5052263;28;20041;-68
2023/03/23 06:02:05;;;;;;;27.80;15.50;;;10.60;99.90;;;;;;5052485;28;20053;-69
2023/03/23 06:04:33;;;;;;;28.63;16.13;;;10.60;99.90;;;;;;5050793;28;20040;-69
2023/03/23 06:07:02;;;;;;;25.98;13.55;;;10.60;99.90;;;;;;5051876;28;20040;-69
2023/03/23 06:09:27;;;;;;;30.67;16.02;;;10.50;99.90;;;;;;5048816;28;20117;-68
2023/03/23 06:11:53;;;;;;;26.98;15.90;;;10.60;99.90;;;;;;5051874;28;20037;-68
2023/03/23 06:14:19;;;;;;;25.77;14.07;;;10.60;99.90;;;;;;5053068;28;20461;-70
2023/03/23 06:16:44;;;;;;;25.00;14.48;;;10.50;99.90;;;;;;5052538;28;20067;-69
2023/03/23 06:19:11;;;;;;;29.33;15.75;;;10.60;99.90;;;;;;5040693;28;20028;-69
2023/03/23 06:21:37;;;;;;;27.80;14.77;;;10.60;99.90;;;;;;5051492;28;20032;-70
2023/03/23 06:24:03;;;;;;;28.65;15.55;;;10.60;99.90;;;;;;5048972;28;20064;-69
2023/03/23 06:26:37;;;;;;;25.27;13.98;;;10.60;99.90;;;;;;5051798;28;20051;-69
2023/03/23 06:29:10;;;;;;;25.38;14.48;;;10.70;99.90;;;;;;5051539;28;20029;-70
2023/03/23 06:31:40;;;;;;;26.95;14.93;;;10.70;99.90;;;;;;5049130;28;20017;-69
2023/03/23 06:34:07;;;;;;;27.65;14.65;;;10.80;99.90;;;;;;5050118;28;20025;-69
2023/03/23 06:36:33;;;;;;;27.67;14.15;;;10.80;99.90;;;;;;5046502;28;20064;-71
2023/03/23 06:38:59;;;;;;;27.23;14.90;;;10.80;99.90;;;;;;5045707;28;20021;-71
2023/03/23 06:41:24;;;;;;;26.30;14.15;;;10.90;99.90;;;;;;5048381;28;20405;-71
2023/03/23 06:43:50;;;;;;;25.05;14.93;;;10.90;99.90;;;;;;5052511;28;20127;-70
2023/03/23 06:46:16;;;;;;;25.88;14.13;;;11.00;99.90;;;;;;5055097;28;20048;-68
2023/03/23 06:48:41;;;;;;;26.65;14.85;;;11.10;99.90;;;;;;5055681;28;20037;-69
2023/03/23 06:51:07;;;;;;;23.05;11.10;;;11.10;99.90;;;;;;5055793;28;20028;-69
2023/03/23 06:53:33;;;;;;;26.67;14.32;;;11.10;99.90;;;;;;5055962;28;20045;-68
2023/03/23 06:55:58;;;;;;;27.02;13.20;;;11.10;99.90;;;;;;5056119;28;20033;-69
2023/03/23 06:58:24;;;;;;;19.95;12.23;;;11.10;99.90;;;;;;5055251;28;20037;-68
2023/03/23 07:00:58;;;;;;;21.52;12.90;;;11.10;99.90;;;;;;5055989;28;20036;-68
2023/03/23 07:03:26;;;;;;;23.27;10.65;;;11.10;99.90;;;;;;5056028;28;20055;-68
2023/03/23 07:05:52;;;;;;;25.63;13.98;;;11.10;99.90;;;;;;5056086;28;20118;-71
2023/03/23 07:08:17;;;;;;;24.77;13.95;;;11.10;99.90;;;;;;5055752;28;20053;-68
2023/03/23 07:10:43;;;;;;;25.10;12.50;;;11.10;99.90;;;;;;5056362;28;20029;-67
2023/03/23 07:13:09;;;;;;;34.38;15.82;;;11.10;99.90;;;;;;5055982;28;20136;-68
2023/03/23 07:15:34;;;;;;;29.80;14.88;;;11.10;99.90;;;;;;5055106;28;20061;-67
2023/03/23 07:18:00;;;;;;;33.33;14.93;;;11.00;99.90;;;;;;5055653;28;20264;-66
2023/03/23 07:20:26;;;;;;;28.92;14.13;;;11.00;99.90;;;;;;5055918;28;20052;-69
2023/03/23 07:22:54;;;;;;;27.55;13.02;;;10.90;99.90;;;;;;5054589;28;20044;-68
2023/03/23 07:25:20;;;;;;;15.23;8.00;;;10.90;99.90;;;;;;5055415;28;20033;-70
2023/03/23 07:27:46;;;;;;;22.42;9.15;;;10.90;99.90;;;;;;5054648;28;20059;-70
2023/03/23 07:30:14;;;;;;;16.65;6.40;;;10.80;99.90;;;;;;5055921;28;20021;-71
2023/03/23 07:32:41;;;;;;;17.48;5.70;;;10.70;99.90;;;;;;5055810;28;20028;-70
2023/03/23 07:35:07;;;;;;;16.58;5.38;;;10.70;99.90;;;;;;5055252;28;20029;-69
2023/03/23 07:37:33;;;;;;;19.13;4.82;;;10.60;99.90;;;;;;5053793;28;20041;-69
2023/03/23 07:39:59;;;;;;;20.02;5.10;;;10.50;99.90;;;;;;5055107;28;20033;-69
2023/03/23 07:42:25;;;;;;;25.15;5.95;;;10.40;99.90;;;;;;5054517;28;20040;-67
2023/03/23 07:44:50;;;;;;;15.52;4.47;;;10.40;99.90;;;;;;5054637;28;20029;-69
2023/03/23 07:47:17;;;;;;;26.42;4.55;;;10.40;99.90;;;;;;5055033;28;20021;-69
2023/03/23 07:49:43;;;;;;;13.50;3.45;;;10.30;99.90;;;;;;5054872;28;20452;-68
2023/03/23 07:52:10;;;;;;;16.38;3.40;;;10.30;99.90;;;;;;5055385;28;20017;-70
2023/03/23 07:54:36;;;;;;;11.77;2.63;;;10.20;99.90;;;;;;5054595;28;20027;-70
2023/03/23 07:57:02;;;;;;;15.25;3.05;;;10.10;99.90;;;;;;5054420;28;20037;-69
2023/03/23 07:59:28;;;;;;;11.98;2.75;;;10.10;99.90;;;;;;5054235;28;20033;-70
2023/03/23 08:01:53;;;;;;;16.25;2.97;;;10.20;99.90;;;;;;5052900;28;20030;-71
2023/03/23 08:04:19;;;;;;;11.85;2.42;;;10.10;99.90;;;;;;5053724;28;20024;-72
2023/03/23 08:06:45;;;;;;;12.13;2.53;;;10.10;99.90;;;;;;5053725;28;20348;-72
2023/03/23 08:09:11;;;;;;;8.68;2.60;;;10.10;99.90;;;;;;5052572;28;20063;-69
2023/03/23 08:11:38;;;;;;;21.42;3.20;;;10.10;99.90;;;;;;5051756;28;20029;-69
2023/03/23 08:14:05;;;;;;;11.43;2.55;;;10.10;99.90;;;;;;5053312;28;20052;-70
2023/03/23 08:16:31;;;;;;;9.13;2.35;;;10.10;99.90;;;;;;5052230;28;20037;-69
2023/03/23 08:18:56;;;;;;;16.05;2.90;;;10.10;99.90;;;;;;5055101;28;20040;-68
2023/03/23 08:21:22;;;;;;;12.25;3.05;;;10.10;99.90;;;;;;5053061;28;20028;-70
2023/03/23 08:23:48;;;;;;;13.25;2.95;;;10.10;99.90;;;;;;5054545;28;20052;-70
2023/03/23 08:26:15;;;;;;;15.45;3.22;;;10.20;99.90;;;;;;5053468;28;20520;-71
2023/03/23 08:28:43;;;;;;;10.68;2.88;;;10.30;99.90;;;;;;5054077;28;20021;-71
2023/03/23 08:31:10;;;;;;;14.25;3.30;;;10.30;99.90;;;;;;5053593;28;20009;-70
2023/03/23 08:33:37;;;;;;;15.35;3.03;;;10.30;99.90;;;;;;5053499;28;20045;-70
2023/03/23 08:36:03;;;;;;;10.43;3.17;;;10.40;99.90;;;;;;5054646;28;20037;-69
2023/03/23 08:38:30;;;;;;;13.50;3.78;;;10.40;99.90;;;;;;5053813;28;20028;-70
2023/03/23 08:41:00;;;;;;;15.18;4.05;;;10.50;99.90;;;;;;5053777;28;20010;-69
2023/03/23 08:43:27;;;;;;;12.70;4.28;;;10.50;99.90;;;;;;5053826;28;20068;-69
2023/03/23 08:45:53;;;;;;;13.05;4.32;;;10.50;99.90;;;;;;5052069;28;20079;-71
2023/03/23 08:48:22;;;;;;;19.23;4.03;;;10.50;99.90;;;;;;5052436;28;20045;-70
2023/03/23 08:50:48;;;;;;;19.30;4.22;;;10.60;99.90;;;;;;5050242;28;20457;-70
2023/03/23 08:53:13;;;;;;;13.45;4.28;;;10.60;99.90;;;;;;5053929;28;20032;-70
2023/03/23 08:55:42;;;;;;;13.55;4.15;;;10.60;99.90;;;;;;5049956;28;20128;-70
2023/03/23 08:58:08;;;;;;;20.58;4.63;;;10.70;99.90;;;;;;5047002;28;20020;-70
2023/03/23 09:00:34;;;;;;;19.70;4.70;;;10.70;99.90;;;;;;5050813;28;20029;-69
2023/03/23 09:02:59;;;;;;;15.50;4.30;;;10.80;99.90;;;;;;5048408;28;20026;-68
2023/03/23 09:05:27;;;;;;;18.38;4.68;;;10.90;99.90;;;;;;5053064;28;20029;-70
2023/03/23 09:07:58;;;;;;;19.20;4.38;;;11.00;99.90;;;;;;5050556;28;20055;-70
2023/03/23 09:10:28;;;;;;;20.73;4.57;;;11.00;99.90;;;;;;5052663;28;20057;-68
2023/03/23 09:12:54;;;;;;;19.02;4.07;;;11.10;99.90;;;;;;5054862;28;20059;-69
2023/03/23 09:15:21;;;;;;;19.42;4.88;;;11.20;99.90;;;;;;5051552;28;20106;-70
2023/03/23 09:17:50;;;;;;;19.25;4.75;;;11.20;99.90;;;;;;5050823;28;20029;-69
2023/03/23 09:20:21;;;;;;;18.30;4.30;;;11.20;99.90;;;;;;5048362;28;20040;-69
2023/03/23 09:22:52;;;;;;;23.73;4.60;;;11.30;99.90;;;;;;5052617;28;21323;-67
2023/03/23 09:25:21;;;;;;;23.77;4.93;;;11.40;99.90;;;;;;5053457;28;20040;-69
2023/03/23 09:27:56;;;;;;;22.85;5.15;;;11.50;99.90;;;;;;5052233;28;20035;-69
2023/03/23 09:30:26;;;;;;;19.58;4.90;;;11.50;99.90;;;;;;5052004;28;20424;-68
2023/03/23 09:32:53;;;;;;;15.70;4.32;;;11.60;99.90;;;;;;5048289;28;20037;-68
2023/03/23 09:35:21;;;;;;;15.30;3.53;;;11.80;99.90;;;;;;5047315;28;20044;-69
2023/03/23 09:37:51;;;;;;;20.25;4.70;;;11.90;99.90;;;;;;5049985;28;20790;-69
2023/03/23 09:40:19;;;;;;;18.98;4.40;;;11.90;99.90;;;;;;5051063;28;20036;-69
2023/03/23 09:43:04;;;;;;;21.50;4.95;;;11.90;99.90;;;;;;5044746;28;20025;-68
2023/03/23 09:46:14;;;;;;;20.88;4.75;;;11.90;99.90;;;;;;5047654;28;20031;-68
2023/03/23 09:49:01;;;;;;;16.05;4.68;;;11.90;99.90;;;;;;5045002;28;20173;-68
2023/03/23 09:51:45;;;;;;;18.27;4.53;;;12.00;99.90;;;;;;5048266;28;20458;-69
2023/03/23 09:54:22;;;;;;;21.95;4.80;;;12.10;99.90;;;;;;5049351;28;20048;-72
2023/03/23 09:56:50;;;;;;;20.63;4.57;;;12.10;99.90;;;;;;5050609;28;20081;-68
2023/03/23 09:59:35;;;;;;;18.02;5.10;;;12.10;99.90;;;;;;5049617;28;20032;-68
2023/03/23 10:02:30;;;;;;;20.27;5.03;;;12.10;99.90;;;;;;5053138;28;20029;-69
2023/03/23 10:05:12;;;;;;;19.00;4.75;;;12.10;99.90;;;;;;5052438;28;20033;-69
2023/03/23 10:07:38;;;;;;;18.05;5.57;;;12.10;99.90;;;;;;5048091;28;20542;-68
2023/03/23 10:10:05;;;;;;;16.83;4.70;;;12.10;99.90;;;;;;5050233;28;20025;-69
2023/03/23 10:12:38;;;;;;;16.00;4.75;;;12.10;99.90;;;;;;5051785;28;20021;-69
2023/03/23 10:15:05;;;;;;;16.90;4.90;;;12.20;99.90;;;;;;5051533;28;20021;-71
2023/03/23 10:17:38;;;;;;;15.65;5.03;;;12.30;99.90;;;;;;5051661;28;20132;-70
2023/03/23 10:20:33;;;;;;;20.48;4.72;;;12.40;99.90;;;;;;5052270;28;20048;-68
2023/03/23 10:23:18;;;;;;;12.20;4.30;;;12.40;99.90;;;;;;5043989;28;20489;-70
2023/03/23 10:25:55;;;;;;;14.30;5.03;;;12.50;99.90;;;;;;5049456;28;20025;-69
2023/03/23 10:28:35;;;;;;;15.07;5.10;;;12.30;99.90;;;;;;5048254;28;20969;-69
2023/03/23 10:31:02;;;;;;;17.13;5.43;;;12.30;99.90;;;;;;5050544;28;20032;-69
2023/03/23 10:33:34;;;;;;;14.50;4.88;;;12.30;99.90;;;;;;5044169;28;20492;-70
2023/03/23 10:36:12;;;;;;;18.60;4.57;;;12.30;99.90;;;;;;5051122;28;20149;-70
2023/03/23 10:38:48;;;;;;;16.73;5.32;;;12.30;99.90;;;;;;5049459;28;20029;-71
2023/03/23 10:41:18;;;;;;;13.23;4.55;;;12.20;99.90;;;;;;5039949;28;20033;-71
2023/03/23 10:43:49;;;;;;;15.10;4.70;;;12.20;99.90;;;;;;5043883;28;20709;-70
2023/03/23 10:46:27;;;;;;;25.80;6.10;;;12.20;99.90;;;;;;5042731;28;20048;-70
2023/03/23 10:48:55;;;;;;;15.20;4.55;;;12.30;99.90;;;;;;5046597;28;20117;-69
2023/03/23 10:51:27;;;;;;;20.25;4.25;;;12.40;99.90;;;;;;5051524;28;20041;-69
2023/03/23 10:53:58;;;;;;;21.02;5.00;;;12.60;99.90;;;;;;5051494;28;20029;-70
2023/03/23 10:56:28;;;;;;;17.20;4.45;;;12.60;99.90;;;;;;5049503;28;20052;-69
2023/03/23 10:58:55;;;;;;;21.17;4.80;;;12.60;99.90;;;;;;5049113;28;20022;-69
2023/03/23 11:01:34;;;;;;;16.88;4.30;;;12.40;99.90;;;;;;5048762;28;20024;-67
2023/03/23 11:04:01;;;;;;;16.35;4.28;;;12.40;99.90;;;;;;5049448;28;20035;-70
2023/03/23 11:06:39;;;;;;;21.40;4.85;;;12.60;99.90;;;;;;5047177;28;20307;-69
2023/03/23 11:09:17;;;;;;;19.83;4.65;;;12.60;99.90;;;;;;5048599;28;20044;-69
2023/03/23 11:11:55;;;;;;;20.60;5.38;;;12.60;99.90;;;;;;5046681;28;20102;-69
2023/03/23 11:14:32;;;;;;;26.08;5.00;;;12.60;99.90;;;;;;5062987;28;20018;-73
2023/03/23 11:17:04;;;;;;;19.00;4.82;;;12.60;99.90;;;;;;5046065;28;20034;-72
2023/03/23 11:19:38;;;;;;;22.08;5.22;;;12.50;99.90;;;;;;5050018;28;20036;-69
2023/03/23 11:22:06;;;;;;;;;;;12.50;99.90;;;;;;5044444;28;20025;-69
2023/03/23 11:24:54;;;;;;;19.98;5.47;;;12.50;99.90;;;;;;5046866;28;19917;-69
2023/03/23 11:27:21;;;;;;;18.42;5.72;;;12.60;99.90;;;;;;5054357;28;20092;-70
2023/03/23 11:30:01;;;;;;;17.42;4.75;;;12.50;99.90;;;;;;5050223;28;20086;-70
2023/03/23 11:32:29;;;;;;;21.02;5.55;;;12.50;99.90;;;;;;5052132;28;20036;-70
2023/03/23 11:35:00;;;;;;;22.65;5.47;;;12.50;99.90;;;;;;5053847;28;20025;-70
2023/03/23 11:37:42;;;;;;;19.27;5.07;;;12.50;99.90;;;;;;5044619;28;20049;-69
2023/03/23 11:40:12;;;;;;;20.88;5.35;;;12.50;99.90;;;;;;5048174;28;20071;-71
2023/03/23 11:42:44;;;;;;;16.90;5.45;;;12.50;99.90;;;;;;5049891;28;20160;-70
2023/03/23 11:45:32;;;;;;;15.02;5.40;;;12.70;99.90;;;;;;5052972;28;20029;-70
2023/03/23 11:48:27;;;;;;;27.02;5.78;;;12.90;99.90;;;;;;5051353;28;20092;-71
2023/03/23 11:51:01;;;;;;;;;;;13.50;99.90;;;;;;5047536;28;20104;-72
2023/03/23 11:53:48;;;;;;;25.75;5.95;;;14.00;99.90;;;;;;5051951;28;19917;-71
2023/03/23 11:56:39;;;;;;;14.85;4.05;;;14.40;99.90;;;;;;5051268;28;20484;-70
2023/03/23 11:59:14;;;;;;;18.15;4.35;;;14.70;99.90;;;;;;5051003;28;20030;-71
2023/03/23 12:01:55;;;;;;;14.07;3.67;;;14.70;99.90;;;;;;5053513;28;20033;-68
2023/03/23 12:04:40;;;;;;;9.93;3.35;;;14.70;99.90;;;;;;5048006;28;20030;-69
2023/03/23 12:07:31;;;;;;;11.07;3.25;;;14.80;99.90;;;;;;5049403;28;20408;-72
2023/03/23 12:10:44;;;;;;;8.45;2.38;;;14.90;99.90;;;;;;5045258;28;20512;-71
2023/03/23 12:13:25;;;;;;;10.10;3.28;;;15.30;99.90;;;;;;5034417;28;20069;-67
2023/03/23 12:16:08;;;;;;;9.85;3.25;;;15.60;99.90;;;;;;5047819;28;20041;-69
2023/03/23 12:18:56;;;;;;;11.30;3.25;;;15.70;99.90;;;;;;5051279;28;20056;-69
2023/03/23 12:21:35;;;;;;;13.02;3.20;;;15.80;99.90;;;;;;5048872;28;20029;-69
2023/03/23 12:24:10;;;;;;;10.32;2.67;;;16.00;99.90;;;;;;5038923;28;20089;-66
2023/03/23 12:26:45;;;;;;;9.23;3.20;;;16.10;99.90;;;;;;5051727;28;20109;-72
2023/03/23 12:29:38;;;;;;;9.60;3.33;;;16.00;99.90;;;;;;5046897;28;20029;-69
2023/03/23 12:32:58;;;;;;;9.63;4.30;;;16.20;99.90;;;;;;5048922;28;20039;-73
2023/03/23 12:35:42;;;;;;;10.50;4.20;;;16.40;99.90;;;;;;5007689;28;20038;-69
2023/03/23 12:38:32;;;;;;;10.27;4.63;;;16.10;99.90;;;;;;5048362;28;20044;-70
2023/03/23 12:41:18;;;;;;;9.43;3.70;;;15.90;99.90;;;;;;5052605;28;20053;-70
2023/03/23 12:44:00;;;;;;;7.80;3.63;;;15.70;99.90;;;;;;5053305;28;20116;-74
2023/03/23 12:46:44;;;;;;;8.50;3.50;;;15.30;99.90;;;;;;5038751;28;20039;-70
2023/03/23 12:49:13;;;;;;;9.10;3.70;;;15.00;99.90;;;;;;5050256;28;20028;-71
2023/03/23 12:52:13;;;;;;;5.75;3.33;;;14.80;99.90;;;;;;5036259;28;20048;-72
2023/03/23 12:54:44;;;;;;;6.90;3.58;;;14.60;99.90;;;;;;5048356;28;20032;-69
2023/03/23 12:57:33;;;;;;;9.48;3.58;;;14.50;99.90;;;;;;5038743;28;20072;-69